UUDD METAR and TAF | Updated Today

UUDD METAR

Domodedovo International Airport

Observation time: 24 min. ago

UUDD 200630Z 02005MPS 320V060 9999 SCT040 09/M03 Q1017 R32L/CLRD60 NOSIG

Need help? Read our tutorial on how to read METARs or read the parsed version below.

Domodedovo International Airport (UUDD) METAR

  • Weather conditions on Fri, 20 May 2022 06:30:00 +0000 (24 min. ago):
  • Present conditions: Dry
  • Clouds: Scattered at 1219 meters
  • Visibility: Greater than 10 km
  • Wind: 20 degrees at 5 knots
  • Temperature: 9 celsius
  • Dew point: -3 celsius
  • Pressure: 1017 millibars
  • Remarks: None


Useful to know...

UUDD TAF

Domodedovo International Airport

TAF UUDD 200454Z 2006/2112 03006G12MPS 9999 SCT030 TX14/2012Z TN04/2101Z BECMG 2016/2018 06003MPS
Observation time: 2:00 hr. ago
Need help? Read our tutorial on how to read TAFs or read the parsed version below.

Parsed version of TAF for Domodedovo International Airport (UUDD)

  • From 20 May at 06:00 UTC, to day 21 of the month at 12:00 UTC
  • Clouds: Scattered at 914 meters
  • Visibility: Greater than 10 km
  • Wind: 30 degrees at 6
  • Expected to arise soon, from 20 May at 16:00 UTC, to day 20 of the month at 18:00 UTC
  • Wind: 60 degrees at 3